sensor_id;sensor_type;location;lat;lon;timestamp;P1;durP1;ratioP1;P2;durP2;ratioP2
51312;SDS011;37397;53.226;10.400;2023-04-03T00:01:03;10.88;;;3.08;;
51312;SDS011;37397;53.226;10.400;2023-04-03T00:03:30;9.05;;;3.13;;
51312;SDS011;37397;53.226;10.400;2023-04-03T00:05:57;12.20;;;3.00;;
51312;SDS011;37397;53.226;10.400;2023-04-03T00:08:23;11.85;;;3.38;;
51312;SDS011;37397;53.226;10.400;2023-04-03T00:10:50;10.00;;;2.97;;
51312;SDS011;37397;53.226;10.400;2023-04-03T00:13:16;7.88;;;3.03;;
51312;SDS011;37397;53.226;10.400;2023-04-03T00:15:43;9.60;;;3.35;;
51312;SDS011;37397;53.226;10.400;2023-04-03T00:18:10;12.95;;;3.22;;
51312;SDS011;37397;53.226;10.400;2023-04-03T00:20:37;10.35;;;3.50;;
51312;SDS011;37397;53.226;10.400;2023-04-03T00:23:04;9.13;;;2.85;;
51312;SDS011;37397;53.226;10.400;2023-04-03T00:25:31;9.38;;;3.05;;
51312;SDS011;37397;53.226;10.400;2023-04-03T00:27:57;8.00;;;2.88;;
51312;SDS011;37397;53.226;10.400;2023-04-03T00:30:24;9.00;;;3.13;;
51312;SDS011;37397;53.226;10.400;2023-04-03T00:32:51;8.55;;;3.00;;
51312;SDS011;37397;53.226;10.400;2023-04-03T00:35:19;7.38;;;2.72;;
51312;SDS011;37397;53.226;10.400;2023-04-03T00:37:47;8.57;;;2.65;;
51312;SDS011;37397;53.226;10.400;2023-04-03T00:40:14;9.63;;;2.60;;
51312;SDS011;37397;53.226;10.400;2023-04-03T00:42:42;9.38;;;3.20;;
51312;SDS011;37397;53.226;10.400;2023-04-03T00:47:39;8.57;;;3.17;;
51312;SDS011;37397;53.226;10.400;2023-04-03T00:50:07;10.88;;;2.88;;
51312;SDS011;37397;53.226;10.400;2023-04-03T00:52:34;9.10;;;2.80;;
51312;SDS011;37397;53.226;10.400;2023-04-03T00:55:02;11.00;;;3.08;;
51312;SDS011;37397;53.226;10.400;2023-04-03T00:57:32;9.07;;;2.95;;
51312;SDS011;37397;53.226;10.400;2023-04-03T01:00:00;10.82;;;3.20;;
51312;SDS011;37397;53.226;10.400;2023-04-03T01:02:31;9.60;;;2.90;;
51312;SDS011;37397;53.226;10.400;2023-04-03T01:04:58;5.95;;;2.78;;
51312;SDS011;37397;53.226;10.400;2023-04-03T01:07:28;8.60;;;2.72;;
51312;SDS011;37397;53.226;10.400;2023-04-03T01:09:57;6.07;;;2.63;;
51312;SDS011;37397;53.226;10.400;2023-04-03T01:12:30;11.90;;;2.60;;
51312;SDS011;37397;53.226;10.400;2023-04-03T01:15:00;7.85;;;2.78;;
51312;SDS011;37397;53.226;10.400;2023-04-03T01:22:41;12.77;;;3.50;;
51312;SDS011;37397;53.226;10.400;2023-04-03T01:25:16;9.55;;;3.08;;
51312;SDS011;37397;53.226;10.400;2023-04-03T01:27:43;9.23;;;2.97;;
51312;SDS011;37397;53.226;10.400;2023-04-03T01:30:10;9.85;;;3.00;;
51312;SDS011;37397;53.226;10.400;2023-04-03T01:32:39;6.20;;;2.80;;
51312;SDS011;37397;53.226;10.400;2023-04-03T01:35:07;8.02;;;2.70;;
51312;SDS011;37397;53.226;10.400;2023-04-03T01:37:34;8.48;;;3.08;;
51312;SDS011;37397;53.226;10.400;2023-04-03T01:40:01;10.93;;;2.85;;
51312;SDS011;37397;53.226;10.400;2023-04-03T01:42:29;8.68;;;2.95;;
51312;SDS011;37397;53.226;10.400;2023-04-03T01:44:56;9.57;;;2.90;;
51312;SDS011;37397;53.226;10.400;2023-04-03T01:47:22;10.77;;;3.17;;
51312;SDS011;37397;53.226;10.400;2023-04-03T01:49:49;10.43;;;3.13;;
51312;SDS011;37397;53.226;10.400;2023-04-03T01:52:16;10.52;;;3.00;;
51312;SDS011;37397;53.226;10.400;2023-04-03T01:54:42;9.93;;;2.83;;
51312;SDS011;37397;53.226;10.400;2023-04-03T01:57:09;9.85;;;3.50;;
51312;SDS011;37397;53.226;10.400;2023-04-03T01:59:36;10.38;;;3.15;;
51312;SDS011;37397;53.226;10.400;2023-04-03T02:02:03;6.78;;;2.92;;
51312;SDS011;37397;53.226;10.400;2023-04-03T02:04:29;9.25;;;3.55;;
51312;SDS011;37397;53.226;10.400;2023-04-03T02:06:56;7.38;;;2.80;;
51312;SDS011;37397;53.226;10.400;2023-04-03T02:09:23;10.63;;;2.78;;
51312;SDS011;37397;53.226;10.400;2023-04-03T02:11:51;9.48;;;3.15;;
51312;SDS011;37397;53.226;10.400;2023-04-03T02:14:18;9.50;;;3.05;;
51312;SDS011;37397;53.226;10.400;2023-04-03T02:16:45;9.95;;;3.03;;
51312;SDS011;37397;53.226;10.400;2023-04-03T02:19:11;9.80;;;3.30;;
51312;SDS011;37397;53.226;10.400;2023-04-03T02:21:38;9.23;;;3.70;;
51312;SDS011;37397;53.226;10.400;2023-04-03T02:24:05;9.25;;;2.85;;
51312;SDS011;37397;53.226;10.400;2023-04-03T02:26:33;12.13;;;3.38;;
51312;SDS011;37397;53.226;10.400;2023-04-03T02:28:59;8.90;;;3.00;;
51312;SDS011;37397;53.226;10.400;2023-04-03T02:31:27;10.32;;;3.38;;
51312;SDS011;37397;53.226;10.400;2023-04-03T02:33:53;9.43;;;2.90;;
51312;SDS011;37397;53.226;10.400;2023-04-03T02:36:21;11.02;;;3.28;;
51312;SDS011;37397;53.226;10.400;2023-04-03T02:38:52;9.00;;;3.28;;
51312;SDS011;37397;53.226;10.400;2023-04-03T02:41:19;6.75;;;2.95;;
51312;SDS011;37397;53.226;10.400;2023-04-03T02:43:48;8.23;;;3.35;;
51312;SDS011;37397;53.226;10.400;2023-04-03T02:46:15;8.57;;;2.83;;
51312;SDS011;37397;53.226;10.400;2023-04-03T02:48:42;9.35;;;3.38;;
51312;SDS011;37397;53.226;10.400;2023-04-03T02:51:08;10.60;;;3.20;;
51312;SDS011;37397;53.226;10.400;2023-04-03T02:53:35;12.60;;;3.65;;
51312;SDS011;37397;53.226;10.400;2023-04-03T02:56:08;9.40;;;3.28;;
51312;SDS011;37397;53.226;10.400;2023-04-03T02:58:35;9.27;;;3.25;;
51312;SDS011;37397;53.226;10.400;2023-04-03T03:01:02;10.30;;;3.35;;
51312;SDS011;37397;53.226;10.400;2023-04-03T03:03:29;9.20;;;3.65;;
51312;SDS011;37397;53.226;10.400;2023-04-03T03:06:03;11.73;;;3.50;;
51312;SDS011;37397;53.226;10.400;2023-04-03T03:08:32;10.05;;;3.53;;
51312;SDS011;37397;53.226;10.400;2023-04-03T03:10:59;11.43;;;3.47;;
51312;SDS011;37397;53.226;10.400;2023-04-03T03:13:26;9.70;;;3.28;;
51312;SDS011;37397;53.226;10.400;2023-04-03T03:15:53;10.55;;;3.58;;
51312;SDS011;37397;53.226;10.400;2023-04-03T03:18:20;9.15;;;3.33;;
51312;SDS011;37397;53.226;10.400;2023-04-03T03:20:51;8.25;;;2.92;;
51312;SDS011;37397;53.226;10.400;2023-04-03T03:23:19;9.05;;;3.05;;
51312;SDS011;37397;53.226;10.400;2023-04-03T03:25:46;11.13;;;4.35;;
51312;SDS011;37397;53.226;10.400;2023-04-03T03:28:12;9.35;;;3.70;;
51312;SDS011;37397;53.226;10.400;2023-04-03T03:30:39;10.23;;;3.42;;
51312;SDS011;37397;53.226;10.400;2023-04-03T03:33:05;9.80;;;3.78;;
51312;SDS011;37397;53.226;10.400;2023-04-03T03:35:32;10.65;;;3.33;;
51312;SDS011;37397;53.226;10.400;2023-04-03T03:37:59;12.25;;;3.38;;
51312;SDS011;37397;53.226;10.400;2023-04-03T03:40:25;7.57;;;3.10;;
51312;SDS011;37397;53.226;10.400;2023-04-03T03:42:52;10.63;;;3.10;;
51312;SDS011;37397;53.226;10.400;2023-04-03T03:45:19;9.15;;;3.17;;
51312;SDS011;37397;53.226;10.400;2023-04-03T03:47:46;11.00;;;3.80;;
51312;SDS011;37397;53.226;10.400;2023-04-03T03:50:14;9.02;;;3.25;;
51312;SDS011;37397;53.226;10.400;2023-04-03T03:52:41;11.00;;;3.20;;
51312;SDS011;37397;53.226;10.400;2023-04-03T03:55:08;9.10;;;3.00;;
51312;SDS011;37397;53.226;10.400;2023-04-03T03:57:35;7.20;;;3.08;;
51312;SDS011;37397;53.226;10.400;2023-04-03T04:00:04;9.02;;;3.35;;
51312;SDS011;37397;53.226;10.400;2023-04-03T04:02:40;10.48;;;3.47;;
51312;SDS011;37397;53.226;10.400;2023-04-03T04:05:11;11.07;;;3.65;;
51312;SDS011;37397;53.226;10.400;2023-04-03T04:07:37;9.95;;;3.10;;
51312;SDS011;37397;53.226;10.400;2023-04-03T04:10:05;10.43;;;3.17;;
51312;SDS011;37397;53.226;10.400;2023-04-03T04:12:32;7.80;;;3.10;;
51312;SDS011;37397;53.226;10.400;2023-04-03T04:14:58;7.75;;;3.40;;
51312;SDS011;37397;53.226;10.400;2023-04-03T04:17:27;9.32;;;3.70;;
51312;SDS011;37397;53.226;10.400;2023-04-03T04:19:54;8.85;;;3.13;;
51312;SDS011;37397;53.226;10.400;2023-04-03T04:22:21;7.95;;;3.50;;
51312;SDS011;37397;53.226;10.400;2023-04-03T04:24:47;7.43;;;3.05;;
51312;SDS011;37397;53.226;10.400;2023-04-03T04:27:14;9.23;;;3.33;;
51312;SDS011;37397;53.226;10.400;2023-04-03T04:29:42;10.70;;;3.38;;
51312;SDS011;37397;53.226;10.400;2023-04-03T04:32:08;9.07;;;3.35;;
51312;SDS011;37397;53.226;10.400;2023-04-03T04:34:35;9.05;;;3.83;;
51312;SDS011;37397;53.226;10.400;2023-04-03T04:37:02;9.43;;;3.42;;
51312;SDS011;37397;53.226;10.400;2023-04-03T04:39:29;11.35;;;3.75;;
51312;SDS011;37397;53.226;10.400;2023-04-03T04:41:57;9.93;;;2.90;;
51312;SDS011;37397;53.226;10.400;2023-04-03T04:44:26;11.98;;;3.50;;
51312;SDS011;37397;53.226;10.400;2023-04-03T04:46:52;8.85;;;3.75;;
51312;SDS011;37397;53.226;10.400;2023-04-03T04:49:20;12.93;;;4.47;;
51312;SDS011;37397;53.226;10.400;2023-04-03T04:51:46;11.60;;;4.05;;
51312;SDS011;37397;53.226;10.400;2023-04-03T04:54:21;11.52;;;3.88;;
51312;SDS011;37397;53.226;10.400;2023-04-03T04:56:48;9.27;;;3.85;;
51312;SDS011;37397;53.226;10.400;2023-04-03T04:59:15;11.20;;;3.72;;
51312;SDS011;37397;53.226;10.400;2023-04-03T05:01:42;9.48;;;3.60;;
51312;SDS011;37397;53.226;10.400;2023-04-03T05:04:13;8.98;;;3.15;;
51312;SDS011;37397;53.226;10.400;2023-04-03T05:06:43;12.82;;;3.70;;
51312;SDS011;37397;53.226;10.400;2023-04-03T05:09:14;10.52;;;4.25;;
51312;SDS011;37397;53.226;10.400;2023-04-03T05:11:42;8.70;;;3.33;;
51312;SDS011;37397;53.226;10.400;2023-04-03T05:14:11;9.00;;;3.25;;
51312;SDS011;37397;53.226;10.400;2023-04-03T05:16:38;12.85;;;3.38;;
51312;SDS011;37397;53.226;10.400;2023-04-03T05:19:06;9.98;;;3.70;;
51312;SDS011;37397;53.226;10.400;2023-04-03T05:21:33;8.18;;;3.30;;
51312;SDS011;37397;53.226;10.400;2023-04-03T05:24:05;8.57;;;3.63;;
51312;SDS011;37397;53.226;10.400;2023-04-03T05:26:38;11.88;;;3.90;;
51312;SDS011;37397;53.226;10.400;2023-04-03T05:29:05;7.88;;;3.72;;
51312;SDS011;37397;53.226;10.400;2023-04-03T05:31:32;10.93;;;3.72;;
51312;SDS011;37397;53.226;10.400;2023-04-03T05:33:59;8.93;;;4.22;;
51312;SDS011;37397;53.226;10.400;2023-04-03T05:36:28;8.77;;;3.80;;
51312;SDS011;37397;53.226;10.400;2023-04-03T05:39:00;11.35;;;4.25;;
51312;SDS011;37397;53.226;10.400;2023-04-03T05:41:27;10.63;;;3.83;;
51312;SDS011;37397;53.226;10.400;2023-04-03T05:43:54;13.27;;;4.00;;
51312;SDS011;37397;53.226;10.400;2023-04-03T05:46:22;13.85;;;4.15;;
51312;SDS011;37397;53.226;10.400;2023-04-03T05:48:53;12.73;;;4.32;;
51312;SDS011;37397;53.226;10.400;2023-04-03T05:51:28;9.05;;;3.90;;
51312;SDS011;37397;53.226;10.400;2023-04-03T05:54:06;11.05;;;3.80;;
51312;SDS011;37397;53.226;10.400;2023-04-03T05:56:39;11.02;;;3.45;;
51312;SDS011;37397;53.226;10.400;2023-04-03T05:59:06;12.50;;;4.15;;
51312;SDS011;37397;53.226;10.400;2023-04-03T06:01:33;16.13;;;4.18;;
51312;SDS011;37397;53.226;10.400;2023-04-03T06:04:00;12.02;;;3.75;;
51312;SDS011;37397;53.226;10.400;2023-04-03T06:06:42;8.80;;;3.92;;
51312;SDS011;37397;53.226;10.400;2023-04-03T06:09:29;15.45;;;4.20;;
51312;SDS011;37397;53.226;10.400;2023-04-03T06:11:56;8.38;;;3.38;;
51312;SDS011;37397;53.226;10.400;2023-04-03T06:14:26;9.40;;;3.83;;
51312;SDS011;37397;53.226;10.400;2023-04-03T06:16:53;13.32;;;4.18;;
51312;SDS011;37397;53.226;10.400;2023-04-03T06:19:20;10.13;;;3.90;;
51312;SDS011;37397;53.226;10.400;2023-04-03T06:21:50;10.30;;;3.80;;
51312;SDS011;37397;53.226;10.400;2023-04-03T06:24:17;10.05;;;3.83;;
51312;SDS011;37397;53.226;10.400;2023-04-03T06:26:44;12.85;;;3.95;;
51312;SDS011;37397;53.226;10.400;2023-04-03T06:29:11;12.05;;;4.10;;
51312;SDS011;37397;53.226;10.400;2023-04-03T06:31:38;10.30;;;3.95;;
51312;SDS011;37397;53.226;10.400;2023-04-03T06:34:06;10.73;;;3.90;;
51312;SDS011;37397;53.226;10.400;2023-04-03T06:36:35;9.82;;;3.70;;
51312;SDS011;37397;53.226;10.400;2023-04-03T06:39:02;15.95;;;4.25;;
51312;SDS011;37397;53.226;10.400;2023-04-03T06:41:29;12.65;;;3.67;;
51312;SDS011;37397;53.226;10.400;2023-04-03T06:43:56;6.20;;;3.38;;
51312;SDS011;37397;53.226;10.400;2023-04-03T06:46:24;10.23;;;3.53;;
51312;SDS011;37397;53.226;10.400;2023-04-03T06:48:52;10.77;;;3.45;;
51312;SDS011;37397;53.226;10.400;2023-04-03T06:51:20;12.25;;;3.55;;
51312;SDS011;37397;53.226;10.400;2023-04-03T06:53:54;7.57;;;2.70;;
51312;SDS011;37397;53.226;10.400;2023-04-03T06:56:23;8.60;;;3.33;;
51312;SDS011;37397;53.226;10.400;2023-04-03T06:58:50;11.02;;;3.53;;
51312;SDS011;37397;53.226;10.400;2023-04-03T07:01:17;11.07;;;3.35;;
51312;SDS011;37397;53.226;10.400;2023-04-03T07:03:47;9.23;;;2.90;;
51312;SDS011;37397;53.226;10.400;2023-04-03T07:06:15;9.55;;;3.20;;
51312;SDS011;37397;53.226;10.400;2023-04-03T07:08:42;11.70;;;3.05;;
51312;SDS011;37397;53.226;10.400;2023-04-03T07:11:10;9.75;;;2.83;;
51312;SDS011;37397;53.226;10.400;2023-04-03T07:13:37;7.47;;;2.65;;
51312;SDS011;37397;53.226;10.400;2023-04-03T07:16:04;9.73;;;2.65;;
51312;SDS011;37397;53.226;10.400;2023-04-03T07:18:32;9.27;;;2.53;;
51312;SDS011;37397;53.226;10.400;2023-04-03T07:20:59;6.82;;;2.67;;
51312;SDS011;37397;53.226;10.400;2023-04-03T07:23:26;7.97;;;2.80;;
51312;SDS011;37397;53.226;10.400;2023-04-03T07:25:53;8.00;;;2.42;;
51312;SDS011;37397;53.226;10.400;2023-04-03T07:28:20;11.75;;;2.88;;
51312;SDS011;37397;53.226;10.400;2023-04-03T07:30:52;9.52;;;2.50;;
51312;SDS011;37397;53.226;10.400;2023-04-03T07:33:34;8.95;;;2.30;;
51312;SDS011;37397;53.226;10.400;2023-04-03T07:36:03;8.85;;;2.55;;
51312;SDS011;37397;53.226;10.400;2023-04-03T07:38:30;12.48;;;2.95;;
51312;SDS011;37397;53.226;10.400;2023-04-03T07:40:57;7.70;;;2.33;;
51312;SDS011;37397;53.226;10.400;2023-04-03T07:43:23;7.85;;;2.40;;
51312;SDS011;37397;53.226;10.400;2023-04-03T07:45:51;10.88;;;2.40;;
51312;SDS011;37397;53.226;10.400;2023-04-03T07:48:22;7.70;;;2.33;;
51312;SDS011;37397;53.226;10.400;2023-04-03T07:50:51;6.87;;;2.00;;
51312;SDS011;37397;53.226;10.400;2023-04-03T07:53:18;4.47;;;2.05;;
51312;SDS011;37397;53.226;10.400;2023-04-03T07:55:48;6.45;;;2.25;;
51312;SDS011;37397;53.226;10.400;2023-04-03T07:58:17;7.07;;;2.53;;
51312;SDS011;37397;53.226;10.400;2023-04-03T08:00:44;7.07;;;2.17;;
51312;SDS011;37397;53.226;10.400;2023-04-03T08:03:11;6.63;;;1.92;;
51312;SDS011;37397;53.226;10.400;2023-04-03T08:05:40;6.10;;;2.25;;
51312;SDS011;37397;53.226;10.400;2023-04-03T08:08:07;6.63;;;2.13;;
51312;SDS011;37397;53.226;10.400;2023-04-03T08:10:36;10.77;;;2.47;;
51312;SDS011;37397;53.226;10.400;2023-04-03T08:13:04;4.93;;;1.83;;
51312;SDS011;37397;53.226;10.400;2023-04-03T08:15:31;7.97;;;2.20;;
51312;SDS011;37397;53.226;10.400;2023-04-03T08:17:58;5.45;;;1.98;;
51312;SDS011;37397;53.226;10.400;2023-04-03T08:20:26;4.75;;;1.90;;
51312;SDS011;37397;53.226;10.400;2023-04-03T08:22:53;9.75;;;2.20;;
51312;SDS011;37397;53.226;10.400;2023-04-03T08:25:20;5.30;;;1.77;;
51312;SDS011;37397;53.226;10.400;2023-04-03T08:27:47;9.35;;;1.88;;
51312;SDS011;37397;53.226;10.400;2023-04-03T08:30:14;7.53;;;2.03;;
51312;SDS011;37397;53.226;10.400;2023-04-03T08:32:40;6.13;;;1.90;;
51312;SDS011;37397;53.226;10.400;2023-04-03T08:35:10;8.38;;;2.50;;
51312;SDS011;37397;53.226;10.400;2023-04-03T08:37:38;4.90;;;1.80;;
51312;SDS011;37397;53.226;10.400;2023-04-03T08:40:06;5.50;;;1.75;;
51312;SDS011;37397;53.226;10.400;2023-04-03T08:45:16;7.05;;;1.90;;
51312;SDS011;37397;53.226;10.400;2023-04-03T08:47:56;7.10;;;2.10;;
51312;SDS011;37397;53.226;10.400;2023-04-03T08:50:45;4.53;;;1.88;;
51312;SDS011;37397;53.226;10.400;2023-04-03T08:53:19;7.10;;;2.03;;
51312;SDS011;37397;53.226;10.400;2023-04-03T08:55:49;5.97;;;1.63;;
51312;SDS011;37397;53.226;10.400;2023-04-03T08:58:28;5.35;;;2.03;;
51312;SDS011;37397;53.226;10.400;2023-04-03T09:03:31;4.18;;;1.55;;
51312;SDS011;37397;53.226;10.400;2023-04-03T09:06:15;3.60;;;1.60;;
51312;SDS011;37397;53.226;10.400;2023-04-03T09:08:49;5.35;;;2.00;;
51312;SDS011;37397;53.226;10.400;2023-04-03T09:17:41;4.13;;;1.80;;
51312;SDS011;37397;53.226;10.400;2023-04-03T09:22:47;4.43;;;1.65;;
51312;SDS011;37397;53.226;10.400;2023-04-03T09:27:47;6.15;;;1.90;;
51312;SDS011;37397;53.226;10.400;2023-04-03T09:30:15;4.53;;;1.80;;
51312;SDS011;37397;53.226;10.400;2023-04-03T09:32:47;4.95;;;1.88;;
51312;SDS011;37397;53.226;10.400;2023-04-03T09:40:47;5.55;;;1.50;;
51312;SDS011;37397;53.226;10.400;2023-04-03T09:43:19;3.22;;;1.40;;
51312;SDS011;37397;53.226;10.400;2023-04-03T09:48:18;6.45;;;1.63;;
51312;SDS011;37397;53.226;10.400;2023-04-03T09:53:27;7.55;;;1.98;;
51312;SDS011;37397;53.226;10.400;2023-04-03T09:55:56;4.13;;;1.75;;
51312;SDS011;37397;53.226;10.400;2023-04-03T09:58:24;6.47;;;1.88;;
51312;SDS011;37397;53.226;10.400;2023-04-03T10:01:23;6.13;;;1.80;;
51312;SDS011;37397;53.226;10.400;2023-04-03T10:04:03;7.45;;;1.90;;
51312;SDS011;37397;53.226;10.400;2023-04-03T10:06:40;5.97;;;1.70;;
51312;SDS011;37397;53.226;10.400;2023-04-03T10:09:24;6.22;;;1.95;;
51312;SDS011;37397;53.226;10.400;2023-04-03T10:11:58;6.45;;;2.00;;
51312;SDS011;37397;53.226;10.400;2023-04-03T10:14:34;6.53;;;1.95;;
51312;SDS011;37397;53.226;10.400;2023-04-03T10:17:05;4.35;;;1.88;;
51312;SDS011;37397;53.226;10.400;2023-04-03T10:19:46;3.85;;;1.77;;
51312;SDS011;37397;53.226;10.400;2023-04-03T10:22:26;8.23;;;1.80;;
51312;SDS011;37397;53.226;10.400;2023-04-03T10:27:59;5.60;;;1.83;;
51312;SDS011;37397;53.226;10.400;2023-04-03T10:30:36;5.57;;;1.80;;
51312;SDS011;37397;53.226;10.400;2023-04-03T10:33:20;8.20;;;1.90;;
51312;SDS011;37397;53.226;10.400;2023-04-03T10:36:00;4.60;;;1.85;;
51312;SDS011;37397;53.226;10.400;2023-04-03T10:38:43;6.05;;;2.10;;
51312;SDS011;37397;53.226;10.400;2023-04-03T10:44:14;4.38;;;1.48;;
51312;SDS011;37397;53.226;10.400;2023-04-03T10:46:52;4.57;;;1.73;;
51312;SDS011;37397;53.226;10.400;2023-04-03T10:57:57;2.63;;;1.55;;
51312;SDS011;37397;53.226;10.400;2023-04-03T11:00:36;5.28;;;1.90;;
51312;SDS011;37397;53.226;10.400;2023-04-03T11:03:11;4.65;;;1.67;;
51312;SDS011;37397;53.226;10.400;2023-04-03T11:05:49;5.95;;;1.70;;
51312;SDS011;37397;53.226;10.400;2023-04-03T11:08:33;6.63;;;1.90;;
51312;SDS011;37397;53.226;10.400;2023-04-03T11:11:07;5.30;;;1.40;;
51312;SDS011;37397;53.226;10.400;2023-04-03T11:13:46;3.15;;;1.60;;
51312;SDS011;37397;53.226;10.400;2023-04-03T11:16:24;5.78;;;2.13;;
51312;SDS011;37397;53.226;10.400;2023-04-03T11:18:57;7.85;;;2.00;;
51312;SDS011;37397;53.226;10.400;2023-04-03T11:21:29;3.15;;;1.58;;
51312;SDS011;37397;53.226;10.400;2023-04-03T11:24:02;7.30;;;1.45;;
51312;SDS011;37397;53.226;10.400;2023-04-03T11:26:35;4.43;;;1.67;;
51312;SDS011;37397;53.226;10.400;2023-04-03T11:29:06;3.65;;;1.65;;
51312;SDS011;37397;53.226;10.400;2023-04-03T11:34:49;4.65;;;1.50;;
51312;SDS011;37397;53.226;10.400;2023-04-03T11:37:31;6.72;;;1.90;;
51312;SDS011;37397;53.226;10.400;2023-04-03T11:40:16;7.00;;;1.85;;
51312;SDS011;37397;53.226;10.400;2023-04-03T11:42:49;5.68;;;1.67;;
51312;SDS011;37397;53.226;10.400;2023-04-03T11:48:00;5.50;;;2.15;;
51312;SDS011;37397;53.226;10.400;2023-04-03T11:50:53;7.95;;;1.80;;
51312;SDS011;37397;53.226;10.400;2023-04-03T11:53:27;7.20;;;2.45;;
51312;SDS011;37397;53.226;10.400;2023-04-03T11:56:03;8.93;;;2.20;;
51312;SDS011;37397;53.226;10.400;2023-04-03T11:59:51;5.15;;;1.85;;
51312;SDS011;37397;53.226;10.400;2023-04-03T12:01:50;4.45;;;1.60;;
51312;SDS011;37397;53.226;10.400;2023-04-03T12:04:23;5.82;;;1.60;;
51312;SDS011;37397;53.226;10.400;2023-04-03T12:12:29;3.17;;;1.60;;
51312;SDS011;37397;53.226;10.400;2023-04-03T12:15:24;7.72;;;2.40;;
51312;SDS011;37397;53.226;10.400;2023-04-03T12:21:11;5.40;;;2.05;;
51312;SDS011;37397;53.226;10.400;2023-04-03T12:26:41;7.00;;;2.22;;
51312;SDS011;37397;53.226;10.400;2023-04-03T12:37:03;6.45;;;1.83;;
51312;SDS011;37397;53.226;10.400;2023-04-03T12:39:59;4.32;;;1.80;;
51312;SDS011;37397;53.226;10.400;2023-04-03T12:48:14;5.80;;;1.77;;
51312;SDS011;37397;53.226;10.400;2023-04-03T12:50:43;2.92;;;1.60;;
51312;SDS011;37397;53.226;10.400;2023-04-03T12:53:13;4.53;;;2.00;;
51312;SDS011;37397;53.226;10.400;2023-04-03T12:55:41;5.68;;;2.00;;
51312;SDS011;37397;53.226;10.400;2023-04-03T13:01:04;4.93;;;1.85;;
51312;SDS011;37397;53.226;10.400;2023-04-03T13:03:38;5.35;;;1.88;;
51312;SDS011;37397;53.226;10.400;2023-04-03T13:06:06;7.95;;;2.38;;
51312;SDS011;37397;53.226;10.400;2023-04-03T13:08:33;7.45;;;1.77;;
51312;SDS011;37397;53.226;10.400;2023-04-03T13:11:04;6.35;;;2.00;;
51312;SDS011;37397;53.226;10.400;2023-04-03T13:13:36;6.40;;;1.73;;
51312;SDS011;37397;53.226;10.400;2023-04-03T13:16:08;3.85;;;1.60;;
51312;SDS011;37397;53.226;10.400;2023-04-03T13:18:37;5.53;;;1.80;;
51312;SDS011;37397;53.226;10.400;2023-04-03T13:21:05;4.95;;;1.85;;
51312;SDS011;37397;53.226;10.400;2023-04-03T13:23:38;5.10;;;1.88;;
51312;SDS011;37397;53.226;10.400;2023-04-03T13:26:09;4.78;;;1.88;;
51312;SDS011;37397;53.226;10.400;2023-04-03T13:28:36;2.88;;;1.60;;
51312;SDS011;37397;53.226;10.400;2023-04-03T13:31:13;5.65;;;1.90;;
51312;SDS011;37397;53.226;10.400;2023-04-03T13:36:39;5.38;;;1.95;;
51312;SDS011;37397;53.226;10.400;2023-04-03T13:39:29;10.05;;;2.00;;
51312;SDS011;37397;53.226;10.400;2023-04-03T13:41:56;5.18;;;1.70;;
51312;SDS011;37397;53.226;10.400;2023-04-03T13:44:36;3.95;;;1.40;;
51312;SDS011;37397;53.226;10.400;2023-04-03T13:49:45;5.28;;;2.08;;
51312;SDS011;37397;53.226;10.400;2023-04-03T13:52:29;5.63;;;1.60;;
51312;SDS011;37397;53.226;10.400;2023-04-03T13:55:09;7.47;;;2.05;;
51312;SDS011;37397;53.226;10.400;2023-04-03T13:57:57;3.25;;;1.48;;
51312;SDS011;37397;53.226;10.400;2023-04-03T14:00:47;4.40;;;1.88;;
51312;SDS011;37397;53.226;10.400;2023-04-03T14:03:21;4.00;;;1.63;;
51312;SDS011;37397;53.226;10.400;2023-04-03T14:05:57;4.63;;;1.58;;
51312;SDS011;37397;53.226;10.400;2023-04-03T14:08:24;5.50;;;1.77;;
51312;SDS011;37397;53.226;10.400;2023-04-03T14:11:13;7.07;;;1.98;;
51312;SDS011;37397;53.226;10.400;2023-04-03T14:13:53;3.72;;;1.50;;
51312;SDS011;37397;53.226;10.400;2023-04-03T14:16:22;5.50;;;1.60;;
51312;SDS011;37397;53.226;10.400;2023-04-03T14:18:51;4.30;;;1.90;;
51312;SDS011;37397;53.226;10.400;2023-04-03T14:21:19;4.90;;;1.73;;
51312;SDS011;37397;53.226;10.400;2023-04-03T14:23:47;3.60;;;1.55;;
51312;SDS011;37397;53.226;10.400;2023-04-03T14:26:19;3.88;;;1.38;;
51312;SDS011;37397;53.226;10.400;2023-04-03T14:28:49;3.30;;;1.70;;
51312;SDS011;37397;53.226;10.400;2023-04-03T14:31:17;4.20;;;1.70;;
51312;SDS011;37397;53.226;10.400;2023-04-03T14:33:45;8.35;;;1.67;;
51312;SDS011;37397;53.226;10.400;2023-04-03T14:36:13;5.60;;;1.60;;
51312;SDS011;37397;53.226;10.400;2023-04-03T14:38:41;4.85;;;1.60;;
51312;SDS011;37397;53.226;10.400;2023-04-03T14:41:09;5.63;;;1.60;;
51312;SDS011;37397;53.226;10.400;2023-04-03T14:46:31;3.13;;;1.70;;
51312;SDS011;37397;53.226;10.400;2023-04-03T14:51:42;4.72;;;1.42;;
51312;SDS011;37397;53.226;10.400;2023-04-03T14:54:13;4.53;;;1.40;;
51312;SDS011;37397;53.226;10.400;2023-04-03T14:56:41;5.97;;;1.58;;
51312;SDS011;37397;53.226;10.400;2023-04-03T14:59:13;5.97;;;1.73;;
51312;SDS011;37397;53.226;10.400;2023-04-03T15:01:41;3.35;;;1.58;;
51312;SDS011;37397;53.226;10.400;2023-04-03T15:04:25;3.88;;;1.50;;
51312;SDS011;37397;53.226;10.400;2023-04-03T15:06:52;4.07;;;1.52;;
51312;SDS011;37397;53.226;10.400;2023-04-03T15:11:47;3.97;;;1.90;;
51312;SDS011;37397;53.226;10.400;2023-04-03T15:14:15;6.80;;;1.88;;
51312;SDS011;37397;53.226;10.400;2023-04-03T15:17:02;3.35;;;1.30;;
51312;SDS011;37397;53.226;10.400;2023-04-03T15:19:34;3.55;;;1.73;;
51312;SDS011;37397;53.226;10.400;2023-04-03T15:22:03;7.22;;;1.92;;
51312;SDS011;37397;53.226;10.400;2023-04-03T15:24:30;3.95;;;1.33;;
51312;SDS011;37397;53.226;10.400;2023-04-03T15:26:56;3.55;;;1.40;;
51312;SDS011;37397;53.226;10.400;2023-04-03T15:29:23;6.25;;;1.80;;
51312;SDS011;37397;53.226;10.400;2023-04-03T15:31:50;4.82;;;1.38;;
51312;SDS011;37397;53.226;10.400;2023-04-03T15:34:19;5.40;;;1.80;;
51312;SDS011;37397;53.226;10.400;2023-04-03T15:36:48;3.22;;;1.60;;
51312;SDS011;37397;53.226;10.400;2023-04-03T15:39:16;3.13;;;1.45;;
51312;SDS011;37397;53.226;10.400;2023-04-03T15:41:43;3.28;;;1.45;;
51312;SDS011;37397;53.226;10.400;2023-04-03T15:44:10;3.90;;;1.92;;
51312;SDS011;37397;53.226;10.400;2023-04-03T15:46:38;4.13;;;1.55;;
51312;SDS011;37397;53.226;10.400;2023-04-03T15:49:04;2.45;;;1.50;;
51312;SDS011;37397;53.226;10.400;2023-04-03T15:51:31;3.05;;;1.33;;
51312;SDS011;37397;53.226;10.400;2023-04-03T15:53:58;5.25;;;1.85;;
51312;SDS011;37397;53.226;10.400;2023-04-03T15:56:24;5.80;;;1.77;;
51312;SDS011;37397;53.226;10.400;2023-04-03T15:58:51;4.95;;;1.33;;
51312;SDS011;37397;53.226;10.400;2023-04-03T16:01:17;4.13;;;1.58;;
51312;SDS011;37397;53.226;10.400;2023-04-03T16:03:44;4.93;;;1.80;;
51312;SDS011;37397;53.226;10.400;2023-04-03T16:06:12;5.97;;;2.00;;
51312;SDS011;37397;53.226;10.400;2023-04-03T16:08:40;2.65;;;1.30;;
51312;SDS011;37397;53.226;10.400;2023-04-03T16:11:07;3.42;;;1.63;;
51312;SDS011;37397;53.226;10.400;2023-04-03T16:13:33;3.15;;;1.58;;
51312;SDS011;37397;53.226;10.400;2023-04-03T16:16:01;4.72;;;1.80;;
51312;SDS011;37397;53.226;10.400;2023-04-03T16:18:28;4.88;;;1.83;;
51312;SDS011;37397;53.226;10.400;2023-04-03T16:20:55;8.40;;;1.73;;
51312;SDS011;37397;53.226;10.400;2023-04-03T16:23:22;5.25;;;1.92;;
51312;SDS011;37397;53.226;10.400;2023-04-03T16:25:50;4.78;;;1.83;;